This is the latest recevied weather packets stored in our database for station/object OH6GPB-4. If no packets are shown the sender has not sent any weather packets the latest 10 day(s).
| Time | Temp. | Humidity | Pressure | Rain* | Wind** | Luminosity | Snow |
|---|---|---|---|---|---|---|---|
| 1777882658 | 10° C | 34% | 1000.6 hPa | 0 mm | - | 636 W/m² | - |
| 1777880857 | 9.44° C | 35% | 1001 hPa | 0 mm | - | 571 W/m² | - |
| 1777879051 | 9.44° C | 37% | 1001.3 hPa | 0 mm | - | 496 W/m² | - |
| 1777877250 | 8.89° C | 43% | 1001.7 hPa | 0 mm | - | 504 W/m² | - |
| 1777875445 | 7.78° C | 54% | 1002.1 hPa | 0 mm | - | 297 W/m² | - |
| 1777873657 | 6.11° C | 65% | 1002.4 hPa | 0 mm | - | 359 W/m² | - |
| 1777871843 | 2.78° C | 77% | 1002.8 hPa | 0 mm | - | 315 W/m² | - |
| 1777870046 | 1.67° C | 79% | 1003.2 hPa | 0 mm | - | 100 W/m² | - |
| 1777868241 | 1.11° C | 83% | 1003.4 hPa | 0 mm | - | 81 W/m² | - |
| 1777866459 | 0° C | 87% | 1003.8 hPa | 0 mm | - | 60 W/m² | - |
| 1777864649 | -1.11° C | 87% | 1003.9 hPa | 0 mm | - | 33 W/m² | - |
| 1777862853 | -1.67° C | 87% | 1004.2 hPa | 0 mm | - | 18 W/m² | - |
| 1777861048 | -1.67° C | 87% | 1004.3 hPa | 0 mm | - | 5 W/m² | - |
| 1777859240 | -1.67° C | 86% | 1004.4 hPa | 0 mm | - | 0 W/m² | - |
| 1777857461 | -1.67° C | 85% | 1004.6 hPa | 0 mm | - | 0 W/m² | - |
| 1777855646 | -1.11° C | 84% | 1004.6 hPa | 0 mm | - | 0 W/m² | - |
| 1777853856 | -0.56° C | 84% | 1004.8 hPa | 0 mm | - | 0 W/m² | - |
| 1777852049 | 0° C | 83% | 1004.9 hPa | 0 mm | - | 0 W/m² | - |
| 1777850251 | 0° C | 82% | 1005.1 hPa | 0 mm | - | 0 W/m² | - |
| 1777848445 | 0.56° C | 81% | 1005.1 hPa | 0 mm | - | 0 W/m² | - |
| 1777846647 | 1.11° C | 79% | 1005.3 hPa | 0 mm | - | 0 W/m² | - |
| 1777844847 | 1.67° C | 79% | 1005.4 hPa | 0 mm | - | 0 W/m² | - |
| 1777843045 | 1.67° C | 78% | 1005.7 hPa | 0 mm | - | 0 W/m² | - |
| 1777841258 | 2.22° C | 77% | 1005.8 hPa | 0 mm | - | 0 W/m² | - |
| 1777839441 | 2.78° C | 74% | 1005.9 hPa | 0 mm | - | 0 W/m² | - |
* Rain latest hour (hover to see other rain measurements)
** Current wind speed in m/s (hover to see current wind gust speed)